createdAt,value
2018-01-02T00:01:02.782Z,3.92
2018-01-02T00:03:30.187Z,3.70
2018-01-02T00:05:57.562Z,3.23
2018-01-02T00:08:24.953Z,3.53
2018-01-02T00:10:52.350Z,3.20
2018-01-02T00:13:19.768Z,3.63
2018-01-02T00:15:47.149Z,2.93
2018-01-02T00:18:14.534Z,2.17
2018-01-02T00:20:41.931Z,2.27
2018-01-02T00:23:09.318Z,2.77
2018-01-02T00:25:36.779Z,3.07
2018-01-02T00:28:04.252Z,3.00
2018-01-02T00:30:31.626Z,2.50
2018-01-02T00:32:59.010Z,2.70
2018-01-02T00:35:26.407Z,2.50
2018-01-02T00:37:53.790Z,2.90
2018-01-02T00:40:21.259Z,2.20
2018-01-02T00:42:48.598Z,2.33
2018-01-02T00:45:15.984Z,2.77
2018-01-02T00:47:43.359Z,2.27
2018-01-02T00:50:10.744Z,2.33
2018-01-02T00:52:38.125Z,2.20
2018-01-02T00:55:05.519Z,2.60
2018-01-02T00:57:32.899Z,2.40
2018-01-02T01:00:00.292Z,1.90
2018-01-02T01:02:27.687Z,2.40
2018-01-02T01:04:55.094Z,2.40
2018-01-02T01:07:22.451Z,2.90
2018-01-02T01:09:49.845Z,2.67
2018-01-02T01:12:17.232Z,3.43
2018-01-02T01:14:44.679Z,3.37
2018-01-02T01:17:12.064Z,2.70
2018-01-02T01:19:39.458Z,2.53
2018-01-02T01:22:06.851Z,2.50
2018-01-02T01:24:34.232Z,2.07
2018-01-02T01:27:01.616Z,2.47
2018-01-02T01:29:29.027Z,2.30
2018-01-02T01:31:56.459Z,2.10
2018-01-02T01:34:23.847Z,1.87
2018-01-02T01:36:51.226Z,1.70
2018-01-02T01:39:18.618Z,1.83
2018-01-02T01:41:46.002Z,2.60
2018-01-02T01:44:13.393Z,2.27
2018-01-02T01:46:40.769Z,2.77
2018-01-02T01:49:08.249Z,2.10
2018-01-02T01:51:35.640Z,2.40
2018-01-02T01:54:03.037Z,3.50
2018-01-02T01:56:30.449Z,2.07
2018-01-02T01:58:57.836Z,2.30
2018-01-02T02:01:25.222Z,2.20
2018-01-02T02:03:52.606Z,2.37
2018-01-02T02:06:19.997Z,3.03
2018-01-02T02:08:47.403Z,2.20
2018-01-02T02:11:14.794Z,2.93
2018-01-02T02:13:42.197Z,3.07
2018-01-02T02:16:09.634Z,2.60
2018-01-02T02:18:37.010Z,2.57
2018-01-02T02:21:04.398Z,2.90
2018-01-02T02:23:31.786Z,3.40
2018-01-02T02:25:59.273Z,3.80
2018-01-02T02:28:26.658Z,2.80
2018-01-02T02:30:54.052Z,2.57
2018-01-02T02:33:21.542Z,3.37
2018-01-02T02:35:48.931Z,3.57
2018-01-02T02:38:16.317Z,3.20
2018-01-02T02:40:55.682Z,3.90
2018-01-02T02:43:23.061Z,3.63
2018-01-02T02:45:50.498Z,3.80
2018-01-02T02:48:17.895Z,4.03
2018-01-02T02:50:45.283Z,3.97
2018-01-02T02:53:12.746Z,3.70
2018-01-02T02:55:40.219Z,3.90
2018-01-02T02:58:07.669Z,3.97
2018-01-02T03:00:35.074Z,4.50
2018-01-02T03:03:02.458Z,3.90
2018-01-02T03:05:29.852Z,5.73
2018-01-02T03:07:57.226Z,5.87
2018-01-02T03:10:24.619Z,5.50
2018-01-02T03:12:52.011Z,5.87
2018-01-02T03:15:19.652Z,6.40
2018-01-02T03:17:47.031Z,5.73
2018-01-02T03:20:14.454Z,7.77
2018-01-02T03:22:41.834Z,7.57
2018-01-02T03:25:09.230Z,8.10
2018-01-02T03:27:36.615Z,8.50
2018-01-02T03:30:03.998Z,8.40
2018-01-02T03:32:31.454Z,8.97
2018-01-02T03:34:59.054Z,9.53
2018-01-02T03:37:26.573Z,8.90
2018-01-02T03:39:53.990Z,9.43
2018-01-02T03:42:21.487Z,10.47
2018-01-02T03:44:48.866Z,9.40
2018-01-02T03:47:16.277Z,9.40
2018-01-02T03:49:43.658Z,9.00
2018-01-02T03:52:11.050Z,9.23
2018-01-02T03:54:38.439Z,9.27
2018-01-02T03:57:05.914Z,8.87
2018-01-02T03:59:33.298Z,9.50
2018-01-02T04:02:00.693Z,10.20
2018-01-02T04:04:28.213Z,9.20
2018-01-02T04:06:55.610Z,9.60
2018-01-02T04:09:22.993Z,9.93
2018-01-02T04:11:50.396Z,11.07
2018-01-02T04:14:17.790Z,10.73
2018-01-02T04:16:45.258Z,11.07
2018-01-02T04:19:12.648Z,10.20
2018-01-02T04:21:40.042Z,11.23
2018-01-02T04:24:07.447Z,12.50
2018-01-02T04:26:34.837Z,10.50
2018-01-02T04:29:02.238Z,11.07
2018-01-02T04:31:29.692Z,12.77
2018-01-02T04:33:57.086Z,12.87
2018-01-02T04:36:24.489Z,11.17
2018-01-02T04:38:51.886Z,10.87
2018-01-02T04:41:19.274Z,11.97
2018-01-02T04:43:46.666Z,12.40
2018-01-02T04:46:14.057Z,13.00
2018-01-02T04:48:41.446Z,10.93
2018-01-02T04:51:09.105Z,12.53
2018-01-02T04:53:36.491Z,12.63
2018-01-02T04:56:03.950Z,13.13
2018-01-02T04:58:31.356Z,13.23
2018-01-02T05:00:58.746Z,15.00
2018-01-02T05:03:26.140Z,12.70
2018-01-02T05:05:53.539Z,14.10
2018-01-02T05:08:20.922Z,13.27
2018-01-02T05:10:48.323Z,13.20
2018-01-02T05:13:15.710Z,14.07
2018-01-02T05:15:43.107Z,14.20
2018-01-02T05:18:10.494Z,15.17
2018-01-02T05:20:37.879Z,13.97
2018-01-02T05:23:05.355Z,15.90
2018-01-02T05:25:32.738Z,13.73
2018-01-02T05:28:00.163Z,16.20
2018-01-02T05:30:27.555Z,14.47
2018-01-02T05:32:54.951Z,15.13
2018-01-02T05:35:22.335Z,13.50
2018-01-02T05:37:49.731Z,14.00
2018-01-02T05:40:17.123Z,15.67
2018-01-02T05:42:44.525Z,13.70
2018-01-02T05:45:11.912Z,13.60
2018-01-02T05:47:39.311Z,13.40
2018-01-02T05:50:06.702Z,16.27
2018-01-02T05:52:34.103Z,14.00
2018-01-02T05:55:01.494Z,14.10
2018-01-02T05:57:28.886Z,16.40
2018-01-02T05:59:56.274Z,14.77
2018-01-02T06:02:23.680Z,16.17
2018-01-02T06:04:51.066Z,14.30
2018-01-02T06:07:18.494Z,14.43
2018-01-02T06:09:45.901Z,13.73
2018-01-02T06:12:13.299Z,13.77
2018-01-02T06:14:40.697Z,14.67
2018-01-02T06:17:08.089Z,13.00
2018-01-02T06:19:35.480Z,13.80
2018-01-02T06:22:02.881Z,15.63
2018-01-02T06:24:30.322Z,13.70
2018-01-02T06:26:57.742Z,13.90
2018-01-02T06:29:25.133Z,13.67
2018-01-02T06:31:52.526Z,14.17
2018-01-02T06:34:19.918Z,13.60
2018-01-02T06:36:47.345Z,12.80
2018-01-02T06:39:14.739Z,13.30
2018-01-02T06:41:42.216Z,13.77
2018-01-02T06:44:09.606Z,14.20
2018-01-02T06:46:37.006Z,12.97
2018-01-02T06:49:04.402Z,11.97
2018-01-02T06:51:31.791Z,13.40
2018-01-02T06:53:59.201Z,13.77
2018-01-02T06:56:26.588Z,14.60
2018-01-02T06:58:53.978Z,13.80
2018-01-02T07:01:21.368Z,12.87
2018-01-02T07:03:48.754Z,15.07
2018-01-02T07:06:16.167Z,13.77
2018-01-02T07:08:43.562Z,11.30
2018-01-02T07:11:11.010Z,11.93
2018-01-02T07:13:38.414Z,12.93
2018-01-02T07:16:05.818Z,12.90
2018-01-02T07:18:33.217Z,14.20
2018-01-02T07:21:00.604Z,13.23
2018-01-02T07:23:27.993Z,13.93
2018-01-02T07:25:55.374Z,14.93
2018-01-02T07:28:22.786Z,14.73
2018-01-02T07:30:50.179Z,14.07
2018-01-02T07:33:17.573Z,13.70
2018-01-02T07:35:44.970Z,14.87
2018-01-02T07:38:12.362Z,14.80
2018-01-02T07:40:39.756Z,14.17
2018-01-02T07:43:07.154Z,13.73
2018-01-02T07:45:34.547Z,13.60
2018-01-02T07:48:01.959Z,13.27
2018-01-02T07:50:29.346Z,13.67
2018-01-02T07:52:56.734Z,12.13
2018-01-02T07:55:24.145Z,12.80
2018-01-02T07:57:51.622Z,13.77
2018-01-02T08:00:19.047Z,12.60
2018-01-02T08:02:46.442Z,11.77
2018-01-02T08:05:13.834Z,11.60
2018-01-02T08:07:41.234Z,11.57
2018-01-02T08:10:08.618Z,10.93
2018-01-02T08:12:36.018Z,11.90
2018-01-02T08:15:03.409Z,11.73
2018-01-02T08:17:30.799Z,9.43
2018-01-02T08:19:58.190Z,11.03
2018-01-02T08:22:25.587Z,11.33
2018-01-02T08:24:52.975Z,10.13
2018-01-02T08:27:20.388Z,10.07
2018-01-02T08:29:47.778Z,9.73
2018-01-02T08:32:15.163Z,8.60
2018-01-02T08:34:42.550Z,8.27
2018-01-02T08:37:09.939Z,8.17
2018-01-02T08:39:37.358Z,8.00
2018-01-02T08:42:04.831Z,5.90
2018-01-02T08:44:32.199Z,6.10
2018-01-02T08:46:59.594Z,5.00
2018-01-02T08:49:27.014Z,4.53
2018-01-02T08:51:54.403Z,4.90
2018-01-02T08:54:21.812Z,5.17
2018-01-02T08:56:49.260Z,4.50
2018-01-02T08:59:16.675Z,4.70
2018-01-02T09:01:44.060Z,6.00
2018-01-02T09:04:11.450Z,4.37
2018-01-02T09:06:38.834Z,6.63
2018-01-02T09:09:06.238Z,4.17
2018-01-02T09:11:33.639Z,3.70
2018-01-02T09:14:11.609Z,3.80
2018-01-02T09:16:38.998Z,4.33
2018-01-02T09:19:06.390Z,4.90
2018-01-02T09:21:33.782Z,4.77
2018-01-02T09:24:01.435Z,5.03
2018-01-02T09:26:28.836Z,5.30
2018-01-02T09:28:56.218Z,5.07
2018-01-02T09:31:23.614Z,5.00
2018-01-02T09:33:51.011Z,5.00
2018-01-02T09:36:18.406Z,4.60
2018-01-02T09:38:45.807Z,5.60
2018-01-02T09:41:13.190Z,6.10
2018-01-02T09:43:40.586Z,6.70
2018-01-02T09:46:08.003Z,5.20
2018-01-02T09:48:35.399Z,6.27
2018-01-02T09:51:02.787Z,5.87
2018-01-02T09:53:30.270Z,5.60
2018-01-02T09:55:57.709Z,7.50
2018-01-02T09:58:25.051Z,5.70
2018-01-02T10:00:52.439Z,6.37
2018-01-02T10:03:19.837Z,5.93
2018-01-02T10:05:47.221Z,5.33
2018-01-02T10:08:14.619Z,5.60
2018-01-02T10:10:42.012Z,6.10
2018-01-02T10:13:09.403Z,5.37
2018-01-02T10:15:36.875Z,5.80
2018-01-02T10:18:04.263Z,5.43
2018-01-02T10:20:31.646Z,5.80
2018-01-02T10:22:59.043Z,6.00
2018-01-02T10:25:26.438Z,7.47
2018-01-02T10:27:53.881Z,6.80
2018-01-02T10:30:21.222Z,7.97
2018-01-02T10:32:48.613Z,6.57
2018-01-02T10:35:16.002Z,7.80
2018-01-02T10:37:43.474Z,8.10
2018-01-02T10:40:10.870Z,7.93
2018-01-02T10:42:38.250Z,7.50
2018-01-02T10:45:05.650Z,8.00
2018-01-02T10:47:33.082Z,7.63
2018-01-02T10:50:00.478Z,7.93
2018-01-02T10:52:27.891Z,8.30
2018-01-02T10:54:55.261Z,8.10
2018-01-02T10:57:22.650Z,7.80
2018-01-02T10:59:50.038Z,7.57
2018-01-02T11:02:17.428Z,7.90
2018-01-02T11:04:44.832Z,7.57
2018-01-02T11:07:12.227Z,8.10
2018-01-02T11:09:39.621Z,8.30
2018-01-02T11:12:07.008Z,7.10
2018-01-02T11:14:39.381Z,7.90
2018-01-02T11:17:06.772Z,7.03
2018-01-02T11:19:34.194Z,8.40
2018-01-02T11:22:01.676Z,7.17
2018-01-02T11:24:29.067Z,8.80
2018-01-02T11:26:56.454Z,8.70
2018-01-02T11:29:23.853Z,8.00
2018-01-02T11:31:51.246Z,8.60
2018-01-02T11:34:18.682Z,7.57
2018-01-02T11:36:46.047Z,9.10
2018-01-02T11:39:13.444Z,8.43
2018-01-02T11:41:40.854Z,8.40
2018-01-02T11:44:08.256Z,7.97
2018-01-02T11:46:35.650Z,8.17
2018-01-02T11:49:03.045Z,7.90
2018-01-02T11:51:30.430Z,8.93
2018-01-02T11:53:57.830Z,8.20
2018-01-02T11:56:25.217Z,8.07
2018-01-02T11:58:52.700Z,7.23
2018-01-02T12:01:20.159Z,7.13
2018-01-02T12:03:47.568Z,7.60
2018-01-02T12:06:14.950Z,7.50
2018-01-02T12:08:42.354Z,7.90
2018-01-02T12:11:09.737Z,8.97
2018-01-02T12:13:37.135Z,7.73
2018-01-02T12:16:04.523Z,7.77
2018-01-02T12:18:31.923Z,6.60
2018-01-02T12:20:59.314Z,7.47
2018-01-02T12:23:26.707Z,7.23
2018-01-02T12:25:54.108Z,7.13
2018-01-02T12:28:21.498Z,7.17
2018-01-02T12:30:48.903Z,7.13
2018-01-02T12:33:16.303Z,8.00
2018-01-02T12:35:43.698Z,7.10
2018-01-02T12:38:11.088Z,7.60
2018-01-02T12:40:38.482Z,6.47
2018-01-02T12:43:05.866Z,7.30
2018-01-02T12:45:33.272Z,7.23
2018-01-02T12:48:00.658Z,7.40
2018-01-02T12:50:28.050Z,6.80
2018-01-02T12:52:55.437Z,7.30
2018-01-02T12:55:22.833Z,6.60
2018-01-02T12:57:50.221Z,6.43
2018-01-02T13:00:17.627Z,6.50
2018-01-02T13:02:45.025Z,7.07
2018-01-02T13:05:12.435Z,6.70
2018-01-02T13:07:39.837Z,6.33
2018-01-02T13:10:07.303Z,6.57
2018-01-02T13:12:34.690Z,5.83
2018-01-02T13:15:02.090Z,6.57
2018-01-02T13:17:29.494Z,6.23
2018-01-02T13:19:56.923Z,7.00
2018-01-02T13:22:24.318Z,9.63
2018-01-02T13:24:51.718Z,12.97
2018-01-02T13:27:19.113Z,11.43
2018-01-02T13:29:46.505Z,6.53
2018-01-02T13:32:13.903Z,9.00
2018-01-02T13:34:41.295Z,7.37
2018-01-02T13:37:08.694Z,7.50
2018-01-02T13:39:36.078Z,7.47
2018-01-02T13:42:03.575Z,6.53
2018-01-02T13:44:30.965Z,5.67
2018-01-02T13:46:58.353Z,5.50
2018-01-02T13:49:25.750Z,4.13
2018-01-02T13:51:53.139Z,4.70
2018-01-02T13:54:20.547Z,3.87
2018-01-02T13:56:47.938Z,4.63
2018-01-02T13:59:15.345Z,3.73
2018-01-02T14:01:42.740Z,4.37
2018-01-02T14:04:10.124Z,4.27
2018-01-02T14:06:37.563Z,4.13
2018-01-02T14:09:04.934Z,4.37
2018-01-02T14:11:32.354Z,4.00
2018-01-02T14:13:59.745Z,3.30
2018-01-02T14:16:27.139Z,3.30
2018-01-02T14:18:54.534Z,2.00
2018-01-02T14:21:21.978Z,2.00
2018-01-02T14:23:49.374Z,2.53
2018-01-02T14:26:16.770Z,2.70
2018-01-02T14:28:44.160Z,2.60
2018-01-02T14:31:11.551Z,3.13
2018-01-02T14:33:38.938Z,2.40
2018-01-02T14:36:06.338Z,3.40
2018-01-02T14:38:33.723Z,2.80
2018-01-02T14:41:01.118Z,2.90
2018-01-02T14:43:28.500Z,3.37
2018-01-02T14:45:55.912Z,3.10
2018-01-02T14:48:23.302Z,3.87
2018-01-02T14:50:50.695Z,3.90
2018-01-02T14:53:18.084Z,2.80
2018-01-02T14:55:45.474Z,3.70
2018-01-02T14:58:12.870Z,2.70
2018-01-02T15:00:40.264Z,2.67
2018-01-02T15:03:07.651Z,2.30
2018-01-02T15:05:35.130Z,2.30
2018-01-02T15:08:02.575Z,2.50
2018-01-02T15:10:29.946Z,3.10
2018-01-02T15:12:57.405Z,1.90
2018-01-02T15:15:24.853Z,2.40
2018-01-02T15:17:52.245Z,2.87
2018-01-02T15:20:19.635Z,2.30
2018-01-02T15:22:47.042Z,2.00
2018-01-02T15:25:14.430Z,1.90
2018-01-02T15:27:41.844Z,2.13
2018-01-02T15:30:09.233Z,2.00
2018-01-02T15:32:36.640Z,1.97
2018-01-02T15:35:04.082Z,3.20
2018-01-02T15:37:31.474Z,2.77
2018-01-02T15:39:59.782Z,2.57
2018-01-02T15:42:27.194Z,3.07
2018-01-02T15:44:54.606Z,4.60
2018-01-02T15:47:21.998Z,2.90
2018-01-02T15:49:49.397Z,2.50
2018-01-02T15:52:16.791Z,2.70
2018-01-02T15:54:44.261Z,2.97
2018-01-02T15:57:11.642Z,3.10
2018-01-02T15:59:39.030Z,3.30
2018-01-02T16:02:06.450Z,4.53
2018-01-02T16:04:33.836Z,3.43
2018-01-02T16:07:01.240Z,3.27
2018-01-02T16:09:28.624Z,3.37
2018-01-02T16:11:56.074Z,4.20
2018-01-02T16:14:23.482Z,3.80
2018-01-02T16:16:50.864Z,3.40
2018-01-02T16:19:18.249Z,3.90
2018-01-02T16:21:45.673Z,3.60
2018-01-02T16:24:13.131Z,3.90
2018-01-02T16:26:40.610Z,4.50
2018-01-02T16:29:08.012Z,3.47
2018-01-02T16:31:35.494Z,3.97
2018-01-02T16:34:02.955Z,4.90
2018-01-02T16:36:30.354Z,3.80
2018-01-02T16:38:58.756Z,4.77
2018-01-02T16:41:26.106Z,4.83
2018-01-02T16:43:53.481Z,4.20
2018-01-02T16:46:20.890Z,6.97
2018-01-02T16:48:48.266Z,5.23
2018-01-02T16:51:15.683Z,5.30
2018-01-02T16:53:43.074Z,5.87
2018-01-02T16:56:10.466Z,7.13
2018-01-02T16:58:37.857Z,5.00
2018-01-02T17:01:05.252Z,6.73
2018-01-02T17:03:32.639Z,6.17
2018-01-02T17:06:00.041Z,6.37
2018-01-02T17:08:27.450Z,6.80
2018-01-02T17:10:54.842Z,6.40
2018-01-02T17:13:22.235Z,8.60
2018-01-02T17:15:49.634Z,6.83
2018-01-02T17:18:17.022Z,6.47
2018-01-02T17:20:44.410Z,7.80
2018-01-02T17:23:11.807Z,8.23
2018-01-02T17:25:39.218Z,7.67
2018-01-02T17:28:06.608Z,7.93
2018-01-02T17:30:34.076Z,7.63
2018-01-02T17:33:01.466Z,7.70
2018-01-02T17:35:28.854Z,8.00
2018-01-02T17:37:56.246Z,8.50
2018-01-02T17:40:23.643Z,8.97
2018-01-02T17:42:51.059Z,9.03
2018-01-02T17:45:18.460Z,8.30
2018-01-02T17:47:45.859Z,8.60
2018-01-02T17:50:13.277Z,9.13
2018-01-02T17:52:40.682Z,9.63
2018-01-02T17:55:08.034Z,8.43
2018-01-02T17:57:35.430Z,8.60
2018-01-02T18:00:02.819Z,7.10
2018-01-02T18:02:30.234Z,7.13
2018-01-02T18:04:57.622Z,9.10
2018-01-02T18:07:25.022Z,7.30
2018-01-02T18:09:52.420Z,7.90
2018-01-02T18:12:19.811Z,9.50
2018-01-02T18:14:47.206Z,7.93
2018-01-02T18:17:14.602Z,7.60
2018-01-02T18:19:41.982Z,7.80
2018-01-02T18:22:09.384Z,8.30
2018-01-02T18:24:36.775Z,7.63
2018-01-02T18:27:04.171Z,8.13
2018-01-02T18:29:31.567Z,8.00
2018-01-02T18:31:58.958Z,8.20
2018-01-02T18:34:26.413Z,9.43
2018-01-02T18:36:53.795Z,7.57
2018-01-02T18:39:21.193Z,8.77
2018-01-02T18:41:48.578Z,7.90
2018-01-02T18:44:15.968Z,8.50
2018-01-02T18:46:43.393Z,8.30
2018-01-02T18:49:10.785Z,8.83
2018-01-02T18:51:38.189Z,8.53
2018-01-02T18:54:05.589Z,9.37
2018-01-02T18:56:33.000Z,18.17
2018-01-02T18:59:00.390Z,22.00
2018-01-02T19:01:27.782Z,7.73
2018-01-02T19:03:55.221Z,9.10
2018-01-02T19:06:22.611Z,8.80
2018-01-02T19:08:49.998Z,8.40
2018-01-02T19:11:17.398Z,10.20
2018-01-02T19:13:44.792Z,18.50
2018-01-02T19:16:12.181Z,11.77
2018-01-02T19:18:39.579Z,14.87
2018-01-02T19:21:07.767Z,17.13
2018-01-02T19:23:35.172Z,10.40
2018-01-02T19:26:02.646Z,9.53
2018-01-02T19:28:30.040Z,10.00
2018-01-02T19:30:57.423Z,11.93
2018-01-02T19:33:24.838Z,12.23
2018-01-02T19:35:52.213Z,11.87
2018-01-02T19:38:19.622Z,11.70
2018-01-02T19:40:47.098Z,11.60
2018-01-02T19:43:14.492Z,13.47
2018-01-02T19:45:41.878Z,11.67
2018-01-02T19:48:09.270Z,12.33
2018-01-02T19:50:36.658Z,13.60
2018-01-02T19:53:04.058Z,14.10
2018-01-02T19:55:31.466Z,13.03
2018-01-02T19:57:59.001Z,14.20
2018-01-02T20:00:26.374Z,15.10
2018-01-02T20:02:53.823Z,14.20
2018-01-02T20:05:21.210Z,13.13
2018-01-02T20:07:48.616Z,12.67
2018-01-02T20:10:15.999Z,12.90
2018-01-02T20:12:43.394Z,13.20
2018-01-02T20:15:10.792Z,14.13
2018-01-02T20:17:38.183Z,12.80
2018-01-02T20:20:05.575Z,13.60
2018-01-02T20:22:32.982Z,13.20
2018-01-02T20:25:00.370Z,12.83
2018-01-02T20:27:27.777Z,13.67
2018-01-02T20:29:55.168Z,13.43
2018-01-02T20:32:22.576Z,12.43
2018-01-02T20:34:49.976Z,13.47
2018-01-02T20:37:17.391Z,13.60
2018-01-02T20:39:44.783Z,13.80
2018-01-02T20:42:12.194Z,12.13
2018-01-02T20:44:39.617Z,13.03
2018-01-02T20:47:07.007Z,12.13
2018-01-02T20:49:34.385Z,9.93
2018-01-02T20:52:01.807Z,12.00
2018-01-02T20:54:29.201Z,11.00
2018-01-02T20:56:56.595Z,10.83
2018-01-02T20:59:23.986Z,11.63
2018-01-02T21:01:51.370Z,9.90
2018-01-02T21:04:18.771Z,9.67
2018-01-02T21:06:46.170Z,9.80
2018-01-02T21:09:13.580Z,8.23
2018-01-02T21:11:41.082Z,9.37
2018-01-02T21:14:08.493Z,8.30
2018-01-02T21:16:35.890Z,8.23
2018-01-02T21:19:03.274Z,7.33
2018-01-02T21:21:30.738Z,8.13
2018-01-02T21:23:58.131Z,8.17
2018-01-02T21:26:25.524Z,6.90
2018-01-02T21:28:52.919Z,8.47
2018-01-02T21:31:20.304Z,7.50
2018-01-02T21:33:47.718Z,7.40
2018-01-02T21:36:15.112Z,7.40
2018-01-02T21:38:42.500Z,6.50
2018-01-02T21:41:09.884Z,7.80
2018-01-02T21:43:37.267Z,5.93
2018-01-02T21:46:04.658Z,6.70
2018-01-02T21:48:32.149Z,6.17
2018-01-02T21:50:59.588Z,6.20
2018-01-02T21:53:26.970Z,6.63
2018-01-02T21:55:54.420Z,6.13
2018-01-02T21:58:21.814Z,6.07
2018-01-02T22:00:49.210Z,5.67
2018-01-02T22:03:16.614Z,6.13
2018-01-02T22:05:43.981Z,4.63
2018-01-02T22:08:11.414Z,3.90
2018-01-02T22:10:38.791Z,5.00
2018-01-02T22:13:06.190Z,4.77
2018-01-02T22:15:33.573Z,4.53
2018-01-02T22:18:00.978Z,4.07
2018-01-02T22:20:28.373Z,3.77
2018-01-02T22:22:55.761Z,4.50
2018-01-02T22:25:23.174Z,3.30
2018-01-02T22:27:50.562Z,3.60
2018-01-02T22:30:17.960Z,4.67
2018-01-02T22:32:45.341Z,3.60
2018-01-02T22:35:12.729Z,4.10
2018-01-02T22:37:40.131Z,4.20
2018-01-02T22:40:07.522Z,3.67
2018-01-02T22:45:15.842Z,3.57
2018-01-02T22:47:43.231Z,3.67
2018-01-02T22:50:10.610Z,3.40
2018-01-02T22:52:37.998Z,4.00
2018-01-02T22:55:05.395Z,3.70
2018-01-02T22:57:32.778Z,3.30
2018-01-02T23:00:00.167Z,3.73
2018-01-02T23:02:27.555Z,3.20
2018-01-02T23:04:54.946Z,3.77
2018-01-02T23:07:22.327Z,4.20
2018-01-02T23:09:49.717Z,3.60
2018-01-02T23:12:17.089Z,4.13
2018-01-02T23:14:44.493Z,5.00
2018-01-02T23:17:11.867Z,4.57
2018-01-02T23:19:39.259Z,4.30
2018-01-02T23:22:06.674Z,5.20
2018-01-02T23:24:34.058Z,4.47
2018-01-02T23:27:01.446Z,4.40
2018-01-02T23:29:28.846Z,3.67
2018-01-02T23:31:56.245Z,4.57
2018-01-02T23:34:23.650Z,6.03
2018-01-02T23:36:51.042Z,4.60
2018-01-02T23:39:18.442Z,6.50
2018-01-02T23:41:45.845Z,4.23
2018-01-02T23:44:13.238Z,4.80
2018-01-02T23:46:40.625Z,4.43
2018-01-02T23:49:08.026Z,4.63
2018-01-02T23:51:35.439Z,4.37
2018-01-02T23:54:02.843Z,4.30
2018-01-02T23:56:30.295Z,4.20
2018-01-02T23:58:57.673Z,4.07
